Time,TemperatureF,DewpointF,PressureIn,WindDirection,WindDirectionDegrees,WindSpeedMPH,WindSpeedGustMPH,Humidity,HourlyPrecipIn,Conditions,Clouds,dailyrainin,SolarRadiationWatts/m^2,SoftwareType,DateUTC
2013-07-07 00:11:00,65.0,36.0,-100.00,NNW,328,3.0,5.0,34,0.00,,,0.00,0.000000,,2013-07-07 07:11:00,
2013-07-07 00:22:00,65.0,36.0,-100.00,NNW,328,3.0,5.0,34,0.00,,,0.00,0.000000,,2013-07-07 07:22:00,
2013-07-07 00:33:00,65.0,36.0,-100.00,NNW,328,3.0,5.0,34,0.00,,,0.00,0.000000,,2013-07-07 07:33:00,
2013-07-07 00:44:00,65.0,36.0,-100.00,NNW,328,3.0,5.0,34,0.00,,,0.00,0.000000,,2013-07-07 07:44:00,
2013-07-07 00:51:00,64.0,35.0,-100.00,NNW,335,4.0,6.0,34,0.00,,,0.00,0.000000,,2013-07-07 07:51:00,
2013-07-07 01:12:00,64.0,35.0,-100.00,NNW,335,4.0,6.0,34,0.00,,,0.00,0.000000,,2013-07-07 08:12:00,
2013-07-07 01:22:00,64.0,35.0,-100.00,NNW,335,4.0,6.0,34,0.00,,,0.00,0.000000,,2013-07-07 08:22:00,
2013-07-07 01:33:00,64.0,35.0,-100.00,NNW,335,4.0,6.0,34,0.00,,,0.00,0.000000,,2013-07-07 08:33:00,
2013-07-07 01:43:00,64.0,35.0,-100.00,NNW,335,4.0,6.0,34,0.00,,,0.00,0.000000,,2013-07-07 08:43:00,
2013-07-07 01:51:00,62.0,34.0,-100.00,SSE,162,3.0,7.0,35,0.00,,,0.00,0.000000,,2013-07-07 08:51:00,
2013-07-07 02:12:00,62.0,34.0,-100.00,SSE,162,3.0,7.0,35,0.00,,,0.00,0.000000,,2013-07-07 09:12:00,
2013-07-07 02:22:00,62.0,34.0,-100.00,SSE,162,3.0,7.0,35,0.00,,,0.00,0.000000,,2013-07-07 09:22:00,
2013-07-07 02:34:00,62.0,34.0,-100.00,SSE,162,3.0,7.0,35,0.00,,,0.00,0.000000,,2013-07-07 09:34:00,
2013-07-07 02:43:00,62.0,34.0,-100.00,SSE,162,3.0,7.0,35,0.00,,,0.00,0.000000,,2013-07-07 09:43:00,
2013-07-07 02:51:00,64.0,25.0,-100.00,NNW,338,3.0,6.0,23,0.00,,,0.00,0.000000,,2013-07-07 09:51:00,
2013-07-07 03:12:00,64.0,25.0,-100.00,NNW,338,3.0,6.0,23,0.00,,,0.00,0.000000,,2013-07-07 10:12:00,
2013-07-07 03:22:00,64.0,25.0,-100.00,NNW,338,3.0,6.0,23,0.00,,,0.00,0.000000,,2013-07-07 10:22:00,
2013-07-07 03:32:00,64.0,25.0,-100.00,NNW,338,3.0,6.0,23,0.00,,,0.00,0.000000,,2013-07-07 10:32:00,
2013-07-07 03:43:00,64.0,25.0,-100.00,NNW,338,3.0,6.0,23,0.00,,,0.00,0.000000,,2013-07-07 10:43:00,
2013-07-07 03:51:00,63.0,26.0,-100.00,East,97,6.0,11.0,24,0.00,,,0.00,0.000000,,2013-07-07 10:51:00,
2013-07-07 04:11:00,63.0,26.0,-100.00,East,97,6.0,11.0,24,0.00,,,0.00,0.000000,,2013-07-07 11:11:00,
2013-07-07 04:23:00,63.0,26.0,-100.00,East,97,6.0,11.0,24,0.00,,,0.00,0.000000,,2013-07-07 11:23:00,
2013-07-07 04:34:00,63.0,26.0,-100.00,East,97,6.0,11.0,24,0.00,,,0.00,0.000000,,2013-07-07 11:34:00,
2013-07-07 04:43:00,63.0,26.0,-100.00,East,97,6.0,11.0,24,0.00,,,0.00,0.000000,,2013-07-07 11:43:00,
2013-07-07 04:51:00,63.0,26.0,-100.00,SSE,149,9.0,13.0,24,0.00,,,0.00,0.000000,,2013-07-07 11:51:00,
2013-07-07 05:12:00,63.0,26.0,-100.00,SSE,149,9.0,13.0,24,0.00,,,0.00,0.000000,,2013-07-07 12:12:00,
2013-07-07 05:22:00,63.0,26.0,-100.00,SSE,149,9.0,13.0,24,0.00,,,0.00,0.000000,,2013-07-07 12:22:00,
2013-07-07 05:34:00,63.0,26.0,-100.00,SSE,149,9.0,13.0,24,0.00,,,0.00,0.000000,,2013-07-07 12:34:00,
2013-07-07 05:43:00,63.0,26.0,-100.00,SSE,149,9.0,13.0,24,0.00,,,0.00,0.000000,,2013-07-07 12:43:00,
2013-07-07 05:51:00,63.0,27.0,-100.00,ESE,113,9.0,14.0,25,0.00,,,0.00,0.000000,,2013-07-07 12:51:00,
2013-07-07 06:22:00,63.0,27.0,-100.00,ESE,113,9.0,14.0,25,0.00,,,0.00,0.000000,,2013-07-07 13:22:00,
2013-07-07 06:34:00,63.0,27.0,-100.00,ESE,113,9.0,14.0,25,0.00,,,0.00,0.000000,,2013-07-07 13:34:00,
2013-07-07 06:43:00,63.0,27.0,-100.00,ESE,113,9.0,14.0,25,0.00,,,0.00,0.000000,,2013-07-07 13:43:00,
2013-07-07 06:51:00,64.0,27.0,-100.00,NNE,12,8.0,14.0,25,0.00,,,0.00,70.000000,,2013-07-07 13:51:00,
2013-07-07 07:22:00,64.0,27.0,-100.00,NNE,12,8.0,14.0,25,0.00,,,0.00,70.000000,,2013-07-07 14:22:00,
2013-07-07 07:34:00,64.0,27.0,-100.00,NNE,12,8.0,14.0,25,0.00,,,0.00,70.000000,,2013-07-07 14:34:00,
2013-07-07 07:43:00,64.0,27.0,-100.00,NNE,12,8.0,14.0,25,0.00,,,0.00,70.000000,,2013-07-07 14:43:00,
2013-07-07 07:51:00,66.0,29.0,-100.00,North,0,7.0,13.0,25,0.00,,,0.00,336.000000,,2013-07-07 14:51:00,
2013-07-07 08:11:00,66.0,29.0,-100.00,North,0,7.0,13.0,25,0.00,,,0.00,336.000000,,2013-07-07 15:11:00,
2013-07-07 08:22:00,66.0,29.0,-100.00,North,0,7.0,13.0,25,0.00,,,0.00,336.000000,,2013-07-07 15:22:00,
2013-07-07 08:34:00,66.0,29.0,-100.00,North,0,7.0,13.0,25,0.00,,,0.00,336.000000,,2013-07-07 15:34:00,
2013-07-07 08:43:00,66.0,29.0,-100.00,North,0,7.0,13.0,25,0.00,,,0.00,336.000000,,2013-07-07 15:43:00,
2013-07-07 09:11:00,74.0,22.0,-100.00,NNE,28,0.0,13.0,14,0.00,,,0.00,625.000000,,2013-07-07 16:11:00,
2013-07-07 09:22:00,74.0,22.0,-100.00,NNE,28,0.0,13.0,14,0.00,,,0.00,625.000000,,2013-07-07 16:22:00,
2013-07-07 09:33:00,74.0,22.0,-100.00,NNE,28,0.0,13.0,14,0.00,,,0.00,625.000000,,2013-07-07 16:33:00,
2013-07-07 09:43:00,74.0,22.0,-100.00,NNE,28,0.0,13.0,14,0.00,,,0.00,625.000000,,2013-07-07 16:43:00,
2013-07-07 10:12:00,77.0,24.0,-100.00,East,82,1.0,7.0,14,0.00,,,0.00,905.000000,,2013-07-07 17:12:00,
2013-07-07 10:22:00,77.0,24.0,-100.00,East,82,1.0,7.0,14,0.00,,,0.00,905.000000,,2013-07-07 17:22:00,
2013-07-07 11:51:00,77.0,22.0,-100.00,West,265,3.0,10.0,13,0.00,,,0.00,1319.000000,,2013-07-07 18:51:00,
2013-07-07 12:11:00,77.0,22.0,-100.00,West,265,3.0,10.0,13,0.00,,,0.00,1319.000000,,2013-07-07 19:11:00,
2013-07-07 12:22:00,77.0,22.0,-100.00,West,265,3.0,10.0,13,0.00,,,0.00,1319.000000,,2013-07-07 19:22:00,
2013-07-07 12:33:00,77.0,22.0,-100.00,West,265,3.0,10.0,13,0.00,,,0.00,1319.000000,,2013-07-07 19:33:00,
2013-07-07 12:43:00,77.0,22.0,-100.00,West,265,3.0,10.0,13,0.00,,,0.00,1319.000000,,2013-07-07 19:43:00,
2013-07-07 12:51:00,80.0,27.0,-100.00,SW,220,2.0,12.0,14,0.00,,,0.00,1417.000000,,2013-07-07 19:51:00,
2013-07-07 13:11:00,80.0,27.0,-100.00,SW,220,2.0,12.0,14,0.00,,,0.00,1417.000000,,2013-07-07 20:11:00,
2013-07-07 13:22:00,80.0,27.0,-100.00,SW,220,2.0,12.0,14,0.00,,,0.00,1417.000000,,2013-07-07 20:22:00,
2013-07-07 13:34:00,80.0,27.0,-100.00,SW,220,2.0,12.0,14,0.00,,,0.00,1417.000000,,2013-07-07 20:34:00,
2013-07-07 13:42:00,80.0,27.0,-100.00,SW,220,2.0,12.0,14,0.00,,,0.00,1417.000000,,2013-07-07 20:42:00,
2013-07-07 13:51:00,79.0,26.0,-100.00,NW,309,5.0,10.0,14,0.00,,,0.00,1427.000000,,2013-07-07 20:51:00,
2013-07-07 14:11:00,79.0,26.0,-100.00,NW,309,5.0,10.0,14,0.00,,,0.00,1427.000000,,2013-07-07 21:11:00,
2013-07-07 14:22:00,79.0,26.0,-100.00,NW,309,5.0,10.0,14,0.00,,,0.00,1427.000000,,2013-07-07 21:22:00,
2013-07-07 14:33:00,79.0,26.0,-100.00,NW,309,5.0,10.0,14,0.00,,,0.00,1427.000000,,2013-07-07 21:33:00,
2013-07-07 14:43:00,79.0,26.0,-100.00,NW,309,5.0,10.0,14,0.00,,,0.00,1427.000000,,2013-07-07 21:43:00,
2013-07-07 14:51:00,77.0,29.0,-100.00,SE,127,4.0,12.0,17,0.00,,,0.00,1375.000000,,2013-07-07 21:51:00,
2013-07-07 15:11:00,77.0,29.0,-100.00,SE,127,4.0,12.0,17,0.00,,,0.00,1375.000000,,2013-07-07 22:11:00,
2013-07-07 15:22:00,77.0,29.0,-100.00,SE,127,4.0,12.0,17,0.00,,,0.00,1375.000000,,2013-07-07 22:22:00,
2013-07-07 15:33:00,77.0,29.0,-100.00,SE,127,4.0,12.0,17,0.00,,,0.00,1375.000000,,2013-07-07 22:33:00,
2013-07-07 15:43:00,77.0,29.0,-100.00,SE,127,4.0,12.0,17,0.00,,,0.00,1375.000000,,2013-07-07 22:43:00,
2013-07-07 15:51:00,78.0,28.0,-100.00,East,93,4.0,12.0,16,0.00,,,0.00,1236.000000,,2013-07-07 22:51:00,
2013-07-07 16:12:00,78.0,28.0,-100.00,East,93,4.0,12.0,16,0.00,,,0.00,1236.000000,,2013-07-07 23:12:00,
2013-07-07 16:22:00,78.0,28.0,-100.00,East,93,4.0,12.0,16,0.00,,,0.00,1236.000000,,2013-07-07 23:22:00,
2013-07-07 16:33:00,78.0,28.0,-100.00,East,93,4.0,12.0,16,0.00,,,0.00,1236.000000,,2013-07-07 23:33:00,
2013-07-07 16:43:00,78.0,28.0,-100.00,East,93,4.0,12.0,16,0.00,,,0.00,1236.000000,,2013-07-07 23:43:00,
2013-07-07 16:51:00,76.0,29.0,-100.00,WNW,285,4.0,13.0,18,0.00,,,0.00,1027.000000,,2013-07-07 23:51:00,
2013-07-07 17:22:00,76.0,29.0,-100.00,WNW,285,4.0,13.0,18,0.00,,,0.00,1027.000000,,2013-07-08 00:22:00,
2013-07-07 17:33:00,76.0,29.0,-100.00,WNW,285,4.0,13.0,18,0.00,,,0.00,1027.000000,,2013-07-08 00:33:00,
2013-07-07 17:43:00,76.0,29.0,-100.00,WNW,285,4.0,13.0,18,0.00,,,0.00,1027.000000,,2013-07-08 00:43:00,
2013-07-07 17:51:00,73.0,30.0,-100.00,NE,51,5.0,16.0,20,0.00,,,0.00,767.000000,,2013-07-08 00:51:00,
2013-07-07 18:11:00,73.0,30.0,-100.00,NE,51,5.0,16.0,20,0.00,,,0.00,767.000000,,2013-07-08 01:11:00,
2013-07-07 18:21:00,73.0,30.0,-100.00,NE,51,5.0,16.0,20,0.00,,,0.00,767.000000,,2013-07-08 01:21:00,
2013-07-07 18:32:00,73.0,30.0,-100.00,NE,51,5.0,16.0,20,0.00,,,0.00,767.000000,,2013-07-08 01:32:00,
2013-07-07 18:42:00,73.0,30.0,-100.00,NE,51,5.0,16.0,20,0.00,,,0.00,767.000000,,2013-07-08 01:42:00,
2013-07-07 18:51:00,68.0,29.0,-100.00,WNW,301,7.0,15.0,23,0.00,,,0.00,306.000000,,2013-07-08 01:51:00,
2013-07-07 19:11:00,68.0,29.0,-100.00,WNW,301,7.0,15.0,23,0.00,,,0.00,306.000000,,2013-07-08 02:11:00,
2013-07-07 19:22:00,68.0,29.0,-100.00,WNW,301,7.0,15.0,23,0.00,,,0.00,306.000000,,2013-07-08 02:22:00,
2013-07-07 19:33:00,68.0,29.0,-100.00,WNW,301,7.0,15.0,23,0.00,,,0.00,306.000000,,2013-07-08 02:33:00,
2013-07-07 19:42:00,68.0,29.0,-100.00,WNW,301,7.0,15.0,23,0.00,,,0.00,306.000000,,2013-07-08 02:42:00,
2013-07-07 19:51:00,65.0,26.0,-100.00,SSW,200,8.0,17.0,23,0.00,,,0.00,26.000000,,2013-07-08 02:51:00,
2013-07-07 20:12:00,65.0,26.0,-100.00,SSW,200,8.0,17.0,23,0.00,,,0.00,26.000000,,2013-07-08 03:12:00,
2013-07-07 20:22:00,65.0,26.0,-100.00,SSW,200,8.0,17.0,23,0.00,,,0.00,26.000000,,2013-07-08 03:22:00,
2013-07-07 20:34:00,65.0,26.0,-100.00,SSW,200,8.0,17.0,23,0.00,,,0.00,26.000000,,2013-07-08 03:34:00,
2013-07-07 20:42:00,65.0,26.0,-100.00,SSW,200,8.0,17.0,23,0.00,,,0.00,26.000000,,2013-07-08 03:42:00,
2013-07-07 20:51:00,65.0,25.0,-100.00,North,11,9.0,15.0,22,0.00,,,0.00,4.000000,,2013-07-08 03:51:00,
2013-07-07 21:11:00,65.0,25.0,-100.00,North,11,9.0,15.0,22,0.00,,,0.00,4.000000,,2013-07-08 04:11:00,
2013-07-07 21:22:00,65.0,25.0,-100.00,North,11,9.0,15.0,22,0.00,,,0.00,4.000000,,2013-07-08 04:22:00,
2013-07-07 21:33:00,65.0,25.0,-100.00,North,11,9.0,15.0,22,0.00,,,0.00,4.000000,,2013-07-08 04:33:00,
2013-07-07 21:42:00,65.0,25.0,-100.00,North,11,9.0,15.0,22,0.00,,,0.00,4.000000,,2013-07-08 04:42:00,
2013-07-07 21:51:00,63.0,24.0,-100.00,East,101,9.0,16.0,22,0.00,,,0.00,0.000000,,2013-07-08 04:51:00,
2013-07-07 22:22:00,63.0,24.0,-100.00,East,101,9.0,16.0,22,0.00,,,0.00,0.000000,,2013-07-08 05:22:00,
2013-07-07 22:33:00,63.0,24.0,-100.00,East,101,9.0,16.0,22,0.00,,,0.00,0.000000,,2013-07-08 05:33:00,
2013-07-07 22:43:00,63.0,24.0,-100.00,East,101,9.0,16.0,22,0.00,,,0.00,0.000000,,2013-07-08 05:43:00,
2013-07-07 22:51:00,62.0,24.0,-100.00,East,96,9.0,16.0,23,0.00,,,0.00,0.000000,,2013-07-08 05:51:00,
2013-07-07 23:11:00,62.0,24.0,-100.00,East,96,9.0,16.0,23,0.00,,,0.00,0.000000,,2013-07-08 06:11:00,
2013-07-07 23:22:00,62.0,24.0,-100.00,East,96,9.0,16.0,23,0.00,,,0.00,0.000000,,2013-07-08 06:22:00,
2013-07-07 23:33:00,62.0,24.0,-100.00,East,96,9.0,16.0,23,0.00,,,0.00,0.000000,,2013-07-08 06:33:00,
2013-07-07 23:42:00,62.0,24.0,-100.00,East,96,9.0,16.0,23,0.00,,,0.00,0.000000,,2013-07-08 06:42:00,
2013-07-07 23:51:00,62.0,24.0,-100.00,North,353,6.0,14.0,23,0.00,,,0.00,0.000000,,2013-07-08 06:51:00,